createdAt,value
2023-01-09T00:01:23.363Z,4.38
2023-01-09T00:03:50.789Z,4.33
2023-01-09T00:06:17.850Z,4.30
2023-01-09T00:08:44.906Z,4.44
2023-01-09T00:11:11.969Z,4.39
2023-01-09T00:13:39.556Z,4.22
2023-01-09T00:16:08.392Z,4.35
2023-01-09T00:18:36.957Z,4.37
2023-01-09T00:21:08.005Z,4.33
2023-01-09T00:23:35.526Z,4.44
2023-01-09T00:26:13.281Z,4.26
2023-01-09T00:28:40.847Z,4.29
2023-01-09T00:31:09.121Z,4.55
2023-01-09T00:34:07.924Z,4.45
2023-01-09T00:36:34.994Z,4.30
2023-01-09T00:39:02.576Z,4.37
2023-01-09T00:41:50.668Z,4.22
2023-01-09T00:44:23.869Z,4.21
2023-01-09T00:46:57.447Z,4.30
2023-01-09T00:49:25.335Z,4.42
2023-01-09T00:51:54.161Z,4.35
2023-01-09T00:54:22.917Z,4.41
2023-01-09T00:56:50.727Z,4.27
2023-01-09T00:59:17.942Z,4.31
2023-01-09T01:01:45.228Z,4.23
2023-01-09T01:04:47.969Z,4.21
2023-01-09T01:07:33.568Z,4.22
2023-01-09T01:10:01.008Z,4.22
2023-01-09T01:12:28.176Z,4.18
2023-01-09T01:14:55.176Z,4.28
2023-01-09T01:17:22.305Z,4.26
2023-01-09T01:19:49.502Z,4.18
2023-01-09T01:22:16.568Z,4.19
2023-01-09T01:24:43.677Z,4.17
2023-01-09T01:27:10.783Z,4.25
2023-01-09T01:29:37.774Z,4.23
2023-01-09T01:32:05.004Z,4.22
2023-01-09T01:34:32.087Z,4.38
2023-01-09T01:36:59.344Z,4.37
2023-01-09T01:39:26.385Z,4.28
2023-01-09T01:41:53.418Z,4.20
2023-01-09T01:45:19.649Z,4.23
2023-01-09T01:48:04.047Z,4.27
2023-01-09T01:50:55.446Z,4.39
2023-01-09T01:53:34.584Z,4.26
2023-01-09T01:56:28.752Z,4.27
2023-01-09T01:59:08.101Z,4.35
2023-01-09T02:01:38.510Z,4.34
2023-01-09T02:04:05.896Z,4.28
2023-01-09T02:06:35.148Z,4.29
2023-01-09T02:09:06.944Z,4.39
2023-01-09T02:11:34.377Z,4.30
2023-01-09T02:14:02.537Z,4.43
2023-01-09T02:17:01.247Z,4.44
2023-01-09T02:19:56.290Z,4.47
2023-01-09T02:22:38.695Z,4.50
2023-01-09T02:26:01.733Z,4.47
2023-01-09T02:29:05.263Z,4.49
2023-01-09T02:32:21.159Z,4.43
2023-01-09T02:35:10.940Z,4.46
2023-01-09T02:38:02.593Z,4.49
2023-01-09T02:40:46.872Z,4.35
2023-01-09T02:43:14.777Z,4.41
2023-01-09T02:45:41.816Z,4.45
2023-01-09T02:48:11.482Z,4.42
2023-01-09T02:51:27.541Z,4.49
2023-01-09T02:54:15.976Z,4.54
2023-01-09T02:56:52.196Z,4.58
2023-01-09T02:59:33.031Z,4.50
2023-01-09T03:02:21.315Z,4.58
2023-01-09T03:05:07.207Z,4.59
2023-01-09T03:08:04.625Z,4.55
2023-01-09T03:11:00.559Z,4.53
2023-01-09T03:13:34.109Z,4.52
2023-01-09T03:16:07.726Z,4.53
2023-01-09T03:18:37.087Z,4.59
2023-01-09T03:21:08.112Z,4.61
2023-01-09T03:23:56.749Z,4.55
2023-01-09T03:26:24.665Z,4.56
2023-01-09T03:28:52.455Z,4.61
2023-01-09T03:31:19.555Z,4.63
2023-01-09T03:33:46.641Z,4.50
2023-01-09T03:36:18.038Z,4.57
2023-01-09T03:38:45.226Z,4.62
2023-01-09T03:41:12.272Z,4.68
2023-01-09T03:43:39.277Z,4.73
2023-01-09T03:46:06.585Z,4.68
2023-01-09T03:48:33.739Z,4.57
2023-01-09T03:51:00.821Z,4.65
2023-01-09T03:53:29.204Z,4.72
2023-01-09T03:55:58.825Z,4.74
2023-01-09T03:58:27.148Z,4.68
2023-01-09T04:01:03.848Z,4.58
2023-01-09T04:03:31.118Z,4.60
2023-01-09T04:05:58.196Z,4.53
2023-01-09T04:08:25.228Z,4.58
2023-01-09T04:10:52.250Z,4.62
2023-01-09T04:13:19.941Z,4.54
2023-01-09T04:15:47.041Z,4.62
2023-01-09T04:18:15.187Z,4.67
2023-01-09T04:20:42.618Z,4.71
2023-01-09T04:23:09.729Z,4.53
2023-01-09T04:25:36.776Z,4.53
2023-01-09T04:28:03.851Z,4.60
2023-01-09T04:30:30.958Z,4.62
2023-01-09T04:32:57.986Z,4.69
2023-01-09T04:35:25.087Z,4.82
2023-01-09T04:37:52.184Z,4.69
2023-01-09T04:40:19.589Z,4.78
2023-01-09T04:42:47.029Z,4.77
2023-01-09T04:45:15.679Z,4.90
2023-01-09T04:47:43.331Z,4.78
2023-01-09T04:50:12.835Z,4.97
2023-01-09T04:52:41.135Z,4.83
2023-01-09T04:55:09.527Z,4.86
2023-01-09T04:57:37.634Z,4.91
2023-01-09T05:00:09.742Z,5.04
2023-01-09T05:02:37.832Z,4.94
2023-01-09T05:05:09.727Z,5.05
2023-01-09T05:07:38.543Z,4.98
2023-01-09T05:10:07.425Z,5.01
2023-01-09T05:12:36.359Z,4.98
2023-01-09T05:15:05.562Z,5.03
2023-01-09T05:17:32.564Z,5.01
2023-01-09T05:20:00.923Z,5.02
2023-01-09T05:22:28.266Z,5.08
2023-01-09T05:24:55.383Z,4.99
2023-01-09T05:27:22.733Z,5.03
2023-01-09T05:29:49.855Z,5.00
2023-01-09T05:32:16.888Z,5.09
2023-01-09T05:34:43.914Z,5.12
2023-01-09T05:37:11.020Z,5.08
2023-01-09T05:39:38.091Z,5.10
2023-01-09T05:42:05.172Z,5.16
2023-01-09T05:44:32.226Z,5.10
2023-01-09T05:47:00.529Z,5.17
2023-01-09T05:49:28.353Z,5.19
2023-01-09T05:51:55.348Z,5.24
2023-01-09T05:54:22.461Z,5.21
2023-01-09T05:56:49.483Z,5.28
2023-01-09T05:59:16.529Z,5.38
2023-01-09T06:01:43.638Z,5.25
2023-01-09T06:04:10.804Z,5.50
2023-01-09T06:06:37.917Z,5.24
2023-01-09T06:09:04.929Z,5.15
2023-01-09T06:11:31.988Z,5.01
2023-01-09T06:13:58.965Z,5.08
2023-01-09T06:16:26.013Z,5.09
2023-01-09T06:18:53.203Z,5.07
2023-01-09T06:21:20.309Z,5.14
2023-01-09T06:23:47.320Z,5.21
2023-01-09T06:26:14.437Z,5.21
2023-01-09T06:28:42.893Z,5.19
2023-01-09T06:31:11.664Z,5.22
2023-01-09T06:33:39.310Z,5.21
2023-01-09T06:36:06.708Z,5.13
2023-01-09T06:38:33.734Z,5.21
2023-01-09T06:41:00.915Z,5.19
2023-01-09T06:43:27.946Z,5.27
2023-01-09T06:45:55.025Z,5.38
2023-01-09T06:48:22.101Z,5.33
2023-01-09T06:50:49.383Z,5.40
2023-01-09T06:53:16.389Z,5.35
2023-01-09T06:55:45.024Z,5.33
2023-01-09T06:58:12.904Z,5.41
2023-01-09T07:00:39.944Z,5.36
2023-01-09T07:03:06.995Z,5.43
2023-01-09T07:05:41.185Z,5.28
2023-01-09T07:08:09.242Z,5.38
2023-01-09T07:10:36.302Z,5.40
2023-01-09T07:13:03.365Z,5.31
2023-01-09T07:15:30.436Z,5.38
2023-01-09T07:17:57.450Z,5.56
2023-01-09T07:20:24.493Z,5.39
2023-01-09T07:22:51.617Z,5.53
2023-01-09T07:25:18.697Z,5.55
2023-01-09T07:27:45.808Z,5.69
2023-01-09T07:30:13.730Z,5.57
2023-01-09T07:32:41.194Z,5.70
2023-01-09T07:35:10.644Z,5.76
2023-01-09T07:37:37.838Z,5.72
2023-01-09T07:40:05.692Z,5.62
2023-01-09T07:42:33.288Z,5.58
2023-01-09T07:45:00.280Z,5.66
2023-01-09T07:47:27.360Z,5.62
2023-01-09T07:49:54.376Z,5.60
2023-01-09T07:52:21.372Z,5.91
2023-01-09T07:54:48.537Z,5.95
2023-01-09T07:57:15.581Z,5.89
2023-01-09T07:59:42.639Z,6.03
2023-01-09T08:02:10.078Z,6.14
2023-01-09T08:04:37.165Z,6.14
2023-01-09T08:07:04.255Z,6.26
2023-01-09T08:09:31.420Z,6.37
2023-01-09T08:11:58.524Z,6.47
2023-01-09T08:14:25.551Z,6.56
2023-01-09T08:16:52.659Z,6.84
2023-01-09T08:19:19.670Z,6.69
2023-01-09T21:19:17.492Z,8.02
2023-01-09T21:21:44.560Z,7.92
2023-01-09T21:24:11.530Z,7.89
2023-01-09T21:26:38.571Z,7.86
2023-01-09T21:29:08.412Z,7.86
2023-01-09T21:31:35.830Z,7.84
2023-01-09T21:34:07.061Z,7.92
2023-01-09T21:36:35.389Z,7.92
2023-01-09T21:39:07.447Z,7.90
2023-01-09T21:41:53.777Z,8.00
2023-01-09T21:44:39.693Z,7.97
2023-01-09T21:47:06.911Z,7.92
2023-01-09T21:49:36.004Z,8.00
2023-01-09T21:52:04.722Z,7.88
2023-01-09T21:54:32.672Z,7.79
2023-01-09T21:56:59.939Z,7.82
2023-01-09T21:59:27.734Z,7.84
2023-01-09T22:01:55.126Z,7.76
2023-01-09T22:04:25.251Z,7.78
2023-01-09T22:06:52.391Z,7.73
2023-01-09T22:09:19.434Z,7.76
2023-01-09T22:11:46.834Z,7.79
2023-01-09T22:14:16.960Z,7.73
2023-01-09T22:16:46.101Z,7.65
2023-01-09T22:19:14.554Z,7.72
2023-01-09T22:21:41.592Z,7.63
2023-01-09T22:24:12.480Z,7.61
2023-01-09T22:26:39.505Z,7.65
2023-01-09T22:29:06.509Z,7.61
2023-01-09T22:31:34.921Z,7.68
2023-01-09T22:34:02.716Z,7.64
2023-01-09T22:36:31.151Z,7.61
2023-01-09T22:39:01.362Z,7.50
2023-01-09T22:41:29.892Z,7.56
2023-01-09T22:43:57.155Z,7.59
2023-01-09T22:46:24.818Z,7.64
2023-01-09T22:48:51.864Z,7.68
2023-01-09T22:51:21.220Z,7.55
2023-01-09T22:53:48.312Z,7.62
2023-01-09T22:56:20.041Z,7.55
2023-01-09T22:58:52.340Z,7.56
2023-01-09T23:01:20.690Z,7.56
2023-01-09T23:03:48.369Z,7.52
2023-01-09T23:06:20.075Z,7.51
2023-01-09T23:08:50.710Z,7.57
2023-01-09T23:11:43.643Z,7.67
2023-01-09T23:14:12.170Z,7.54
2023-01-09T23:16:39.638Z,7.49
2023-01-09T23:19:09.928Z,7.54
2023-01-09T23:21:37.252Z,7.55
2023-01-09T23:24:06.879Z,7.47
2023-01-09T23:26:35.347Z,7.49
2023-01-09T23:29:02.384Z,7.51
2023-01-09T23:31:29.460Z,7.59
2023-01-09T23:33:56.694Z,7.55
2023-01-09T23:36:23.860Z,7.50
2023-01-09T23:38:50.959Z,7.57
2023-01-09T23:41:18.453Z,7.47
2023-01-09T23:43:45.785Z,7.63
2023-01-09T23:46:12.915Z,7.69
2023-01-09T23:48:40.157Z,7.69
2023-01-09T23:51:07.133Z,7.52
2023-01-09T23:53:34.194Z,7.44
2023-01-09T23:56:01.645Z,7.47
2023-01-09T23:58:28.721Z,7.49
